createdAt,value
2022-12-24T00:00:18.076Z,3.55
2022-12-24T00:02:48.218Z,3.30
2022-12-24T00:05:18.723Z,2.60
2022-12-24T00:07:51.369Z,3.00
2022-12-24T00:10:21.737Z,3.08
2022-12-24T00:12:51.817Z,3.05
2022-12-24T00:15:22.124Z,2.80
2022-12-24T00:17:52.208Z,2.42
2022-12-24T00:20:25.020Z,3.10
2022-12-24T00:22:57.740Z,3.05
2022-12-24T00:25:27.785Z,2.72
2022-12-24T00:27:57.910Z,3.20
2022-12-24T00:30:27.989Z,2.92
2022-12-24T00:32:58.490Z,3.47
2022-12-24T00:35:28.585Z,3.30
2022-12-24T00:38:01.577Z,3.72
2022-12-24T00:40:32.301Z,3.00
2022-12-24T00:43:02.700Z,3.15
2022-12-24T00:45:32.909Z,3.33
2022-12-24T00:48:03.060Z,3.13
2022-12-24T00:50:33.160Z,3.17
2022-12-24T00:53:05.981Z,3.72
2022-12-24T00:55:36.057Z,3.40
2022-12-24T00:58:06.237Z,3.58
2022-12-24T01:00:39.474Z,3.30
2022-12-24T01:03:09.684Z,3.05
2022-12-24T01:05:37.315Z,3.33
2022-12-24T01:08:11.586Z,4.07
2022-12-24T01:10:41.647Z,2.75
2022-12-24T01:13:11.824Z,4.78
2022-12-24T01:15:42.031Z,3.15
2022-12-24T01:18:12.228Z,2.80
2022-12-24T01:20:42.346Z,3.05
2022-12-24T01:23:15.134Z,3.50
2022-12-24T01:25:46.510Z,3.10
2022-12-24T01:28:16.562Z,3.00
2022-12-24T01:30:47.112Z,3.15
2022-12-24T01:33:17.422Z,3.40
2022-12-24T01:35:47.768Z,3.38
2022-12-24T01:38:22.672Z,2.80
2022-12-24T01:41:05.517Z,3.75
2022-12-24T01:43:36.724Z,3.38
2022-12-24T01:46:12.859Z,2.70
2022-12-24T01:48:48.362Z,2.97
2022-12-24T01:51:27.174Z,3.10
2022-12-24T01:54:06.874Z,2.70
2022-12-24T01:56:43.010Z,2.83
2022-12-24T01:59:19.202Z,3.10
2022-12-24T02:01:50.992Z,2.90
2022-12-24T02:04:33.224Z,2.88
2022-12-24T02:07:03.890Z,2.80
2022-12-24T02:09:39.250Z,2.83
2022-12-24T02:12:11.505Z,2.72
2022-12-24T02:14:42.297Z,2.33
2022-12-24T02:17:29.498Z,2.85
2022-12-24T02:20:55.974Z,3.30
2022-12-24T02:24:06.059Z,2.67
2022-12-24T02:27:05.383Z,2.67
2022-12-24T02:30:19.416Z,2.88
2022-12-24T02:33:14.294Z,2.40
2022-12-24T02:35:56.190Z,2.63
2022-12-24T02:38:34.417Z,2.58
2022-12-24T02:41:12.044Z,2.55
2022-12-24T02:43:48.784Z,3.30
2022-12-24T02:46:28.560Z,3.42
2022-12-24T02:49:03.823Z,2.33
2022-12-24T02:51:33.917Z,2.45
2022-12-24T02:54:04.436Z,2.58
2022-12-24T02:57:05.803Z,2.13
2022-12-24T03:00:02.000Z,2.13
2022-12-24T03:02:53.571Z,2.05
2022-12-24T03:05:34.098Z,2.35
2022-12-24T03:08:12.832Z,2.40
2022-12-24T03:10:54.693Z,2.15
2022-12-24T03:13:28.928Z,2.53
2022-12-24T03:15:59.309Z,2.50
2022-12-24T03:18:33.700Z,2.28
2022-12-24T03:21:12.572Z,2.35
2022-12-24T03:23:43.117Z,2.17
2022-12-24T03:26:17.314Z,3.03
2022-12-24T03:28:48.585Z,2.50
2022-12-24T03:31:19.755Z,3.05
2022-12-24T03:33:53.599Z,3.03
2022-12-24T03:36:25.425Z,3.38
2022-12-24T03:38:59.777Z,2.95
2022-12-24T03:41:29.905Z,3.38
2022-12-24T03:44:00.157Z,3.10
2022-12-24T03:46:30.437Z,3.05
2022-12-24T03:49:04.116Z,2.58
2022-12-24T03:51:36.531Z,2.70
2022-12-24T03:54:06.945Z,2.67
2022-12-24T03:56:39.136Z,3.03
2022-12-24T03:59:09.212Z,2.80
2022-12-24T04:01:39.580Z,2.85
2022-12-24T04:04:12.424Z,3.53
2022-12-24T04:06:42.568Z,2.95
2022-12-24T04:09:12.661Z,3.17
2022-12-24T04:11:42.850Z,3.70
2022-12-24T04:14:13.017Z,3.58
2022-12-24T04:16:43.248Z,2.92
2022-12-24T04:19:16.041Z,2.20
2022-12-24T04:21:46.165Z,2.22
2022-12-24T04:24:16.285Z,1.63
2022-12-24T04:26:46.248Z,1.60
2022-12-24T04:29:16.504Z,1.52
2022-12-24T04:31:46.715Z,1.40
2022-12-24T04:34:19.639Z,1.45
2022-12-24T04:36:49.827Z,1.20
2022-12-24T04:39:19.955Z,1.60
2022-12-24T04:41:50.118Z,1.37
2022-12-24T04:44:20.232Z,1.27
2022-12-24T04:46:50.312Z,1.10
2022-12-24T04:49:22.990Z,1.30
2022-12-24T04:51:53.115Z,1.35
2022-12-24T04:54:23.217Z,1.80
2022-12-24T04:56:53.313Z,2.00
2022-12-24T04:59:23.411Z,2.13
2022-12-24T05:01:53.754Z,2.60
2022-12-24T05:04:26.545Z,2.63
2022-12-24T05:06:56.684Z,2.30
2022-12-24T05:09:26.825Z,2.93
2022-12-24T05:11:56.974Z,2.77
2022-12-24T05:14:27.114Z,2.67
2022-12-24T05:16:59.585Z,2.90
2022-12-24T05:19:32.388Z,2.03
2022-12-24T05:22:15.359Z,2.40
2022-12-24T05:24:58.092Z,2.37
2022-12-24T05:27:28.328Z,2.88
2022-12-24T05:29:58.557Z,1.83
2022-12-24T05:32:28.801Z,2.05
2022-12-24T05:35:01.519Z,1.85
2022-12-24T05:37:31.681Z,1.40
2022-12-24T05:40:01.777Z,1.50
2022-12-24T05:42:33.000Z,1.17
2022-12-24T05:45:06.160Z,1.50
2022-12-24T05:47:42.896Z,1.50
2022-12-24T05:50:16.520Z,1.20
2022-12-24T05:52:46.639Z,1.58
2022-12-24T05:55:16.755Z,1.42
2022-12-24T05:57:46.946Z,1.58
2022-12-24T06:00:18.307Z,1.20
2022-12-24T06:02:50.030Z,1.67
2022-12-24T06:05:22.819Z,1.70
2022-12-24T06:07:53.075Z,1.35
2022-12-24T06:10:23.285Z,1.48
2022-12-24T06:12:53.478Z,1.83
2022-12-24T06:15:24.326Z,1.98
2022-12-24T06:17:54.845Z,1.85
2022-12-24T06:20:27.647Z,2.10
2022-12-24T06:22:57.809Z,2.63
2022-12-24T06:25:27.997Z,2.10
2022-12-24T06:27:58.138Z,2.60
2022-12-24T06:30:32.400Z,2.40
2022-12-24T06:33:02.539Z,2.37
2022-12-24T06:35:38.633Z,2.60
2022-12-24T06:38:08.918Z,3.13
2022-12-24T06:40:40.855Z,2.88
2022-12-24T06:43:11.132Z,3.38
2022-12-24T06:45:41.639Z,3.28
2022-12-24T06:48:12.337Z,3.53
2022-12-24T06:50:46.886Z,3.13
2022-12-24T06:53:24.226Z,4.40
2022-12-24T06:55:55.437Z,3.00
2022-12-24T06:58:25.695Z,3.80
2022-12-24T07:00:55.862Z,3.03
2022-12-24T07:03:27.033Z,3.33
2022-12-24T07:06:02.586Z,3.78
2022-12-24T07:08:36.371Z,3.50
2022-12-24T07:11:07.683Z,3.67
2022-12-24T07:13:38.976Z,3.30
2022-12-24T07:16:09.914Z,4.53
2022-12-24T07:18:40.637Z,4.45
2022-12-24T07:21:13.627Z,4.53
2022-12-24T07:23:43.858Z,4.65
2022-12-24T07:26:14.354Z,3.92
2022-12-24T07:28:44.523Z,3.80
2022-12-24T07:31:17.184Z,4.75
2022-12-24T07:33:47.495Z,4.25
2022-12-24T07:36:24.559Z,4.93
2022-12-24T07:38:54.725Z,3.53
2022-12-24T07:41:25.490Z,4.68
2022-12-24T07:43:55.584Z,4.35
2022-12-24T07:46:25.686Z,4.00
2022-12-24T07:48:55.842Z,3.47
2022-12-24T07:51:28.490Z,4.47
2022-12-24T07:54:01.984Z,3.65
2022-12-24T07:56:34.550Z,4.47
2022-12-24T07:59:04.681Z,4.47
2022-12-24T08:01:34.898Z,4.38
2022-12-24T08:04:05.141Z,4.28
2022-12-24T08:06:37.856Z,4.28
2022-12-24T08:09:09.685Z,5.25
2022-12-24T08:11:43.420Z,4.57
2022-12-24T08:14:18.613Z,4.00
2022-12-24T08:16:48.898Z,7.47
2022-12-24T08:19:19.697Z,11.80
2022-12-24T08:21:52.375Z,13.57
2022-12-24T08:24:22.568Z,14.18
2022-12-24T08:26:55.255Z,10.57
2022-12-24T08:29:25.388Z,8.23
2022-12-24T08:31:55.516Z,9.57
2022-12-24T08:34:25.671Z,6.25
2022-12-24T08:36:58.331Z,6.80
2022-12-24T08:39:28.414Z,5.55
2022-12-24T08:41:59.185Z,4.00
2022-12-24T08:44:29.313Z,3.90
2022-12-24T08:46:59.434Z,4.75
2022-12-24T08:49:29.519Z,4.10
2022-12-24T08:52:03.745Z,5.53
2022-12-24T08:54:33.780Z,5.88
2022-12-24T08:57:03.927Z,4.75
2022-12-24T08:59:34.032Z,4.65
2022-12-24T09:02:04.534Z,4.60
2022-12-24T09:04:34.756Z,4.03
2022-12-24T09:07:07.464Z,3.90
2022-12-24T09:09:38.694Z,4.30
2022-12-24T09:12:11.550Z,3.95
2022-12-24T09:14:41.623Z,4.25
2022-12-24T09:17:11.702Z,4.03
2022-12-24T09:19:41.999Z,4.22
2022-12-24T09:22:14.745Z,9.20
2022-12-24T09:24:44.810Z,3.38
2022-12-24T09:27:14.932Z,3.70
2022-12-24T09:29:46.013Z,3.97
2022-12-24T09:32:16.869Z,4.55
2022-12-24T09:34:47.109Z,4.30
2022-12-24T09:37:19.807Z,3.90
2022-12-24T09:39:50.700Z,4.25
2022-12-24T09:42:41.278Z,3.78
2022-12-24T09:45:23.015Z,4.22
2022-12-24T09:47:57.201Z,4.80
2022-12-24T09:50:42.848Z,4.10
2022-12-24T09:53:25.365Z,4.22
2022-12-24T09:56:02.151Z,4.00
2022-12-24T09:58:40.282Z,4.57
2022-12-24T10:01:13.526Z,4.40
2022-12-24T10:03:44.591Z,4.65
2022-12-24T10:06:25.180Z,4.20
2022-12-24T10:09:21.829Z,4.35
2022-12-24T10:12:00.223Z,3.83
2022-12-24T10:14:52.013Z,3.67
2022-12-24T10:17:44.097Z,4.60
2022-12-24T10:20:38.914Z,4.13
2022-12-24T10:23:22.227Z,4.22
2022-12-24T10:26:10.863Z,4.07
2022-12-24T10:28:49.897Z,3.60
2022-12-24T10:31:27.533Z,4.10
2022-12-24T10:34:04.544Z,4.10
2022-12-24T10:36:35.736Z,3.92
2022-12-24T10:39:06.206Z,4.07
2022-12-24T10:41:40.119Z,3.83
2022-12-24T10:44:19.708Z,3.63
2022-12-24T10:46:50.407Z,3.70
2022-12-24T10:49:29.221Z,4.15
2022-12-24T10:52:06.271Z,4.68
2022-12-24T10:54:39.576Z,4.07
2022-12-24T10:57:29.629Z,3.20
2022-12-24T11:00:03.661Z,4.25
2022-12-24T11:02:37.644Z,3.72
2022-12-24T11:05:32.393Z,3.97
2022-12-24T11:08:09.368Z,3.63
2022-12-24T11:10:47.792Z,4.10
2022-12-24T11:13:38.843Z,3.67
2022-12-24T11:16:17.918Z,4.60
2022-12-24T11:18:54.601Z,4.22
2022-12-24T11:21:29.333Z,3.30
2022-12-24T11:24:04.260Z,3.95
2022-12-24T11:26:35.368Z,4.40
2022-12-24T11:29:22.048Z,4.35
2022-12-24T11:31:53.889Z,4.22
2022-12-24T11:34:32.779Z,4.32
2022-12-24T11:37:18.070Z,4.32
2022-12-24T11:39:57.559Z,4.63
2022-12-24T11:42:35.458Z,4.07
2022-12-24T11:45:25.261Z,4.45
2022-12-24T11:47:56.959Z,4.20
2022-12-24T11:50:32.613Z,4.80
2022-12-24T11:53:14.774Z,5.38
2022-12-24T11:55:51.273Z,4.57
2022-12-24T11:58:31.501Z,4.75
2022-12-24T12:01:15.955Z,4.18
2022-12-24T12:03:51.983Z,4.45
2022-12-24T12:06:42.819Z,4.65
2022-12-24T12:09:20.888Z,3.88
2022-12-24T12:11:58.017Z,4.43
2022-12-24T12:14:36.326Z,4.05
2022-12-24T12:17:32.462Z,4.15
2022-12-24T12:20:10.667Z,3.40
2022-12-24T12:22:51.459Z,3.60
2022-12-24T12:25:29.292Z,3.95
2022-12-24T12:28:03.313Z,3.25
2022-12-24T12:30:38.522Z,4.10
2022-12-24T12:33:26.449Z,3.60
2022-12-24T12:36:00.280Z,4.10
2022-12-24T12:38:32.181Z,4.18
2022-12-24T12:41:19.605Z,4.13
2022-12-24T12:44:34.922Z,4.18
2022-12-24T12:47:34.553Z,4.20
2022-12-24T12:50:21.606Z,3.65
2022-12-24T12:53:26.969Z,4.07
2022-12-24T12:56:12.307Z,3.97
2022-12-24T12:58:51.306Z,3.45
2022-12-24T13:01:37.145Z,4.05
2022-12-24T13:05:05.097Z,3.63
2022-12-24T13:08:19.105Z,3.55
2022-12-24T13:11:19.681Z,3.83
2022-12-24T13:14:38.085Z,3.95
2022-12-24T13:18:00.297Z,3.88
2022-12-24T13:20:33.663Z,3.95
2022-12-24T13:23:16.689Z,3.75
2022-12-24T13:25:52.016Z,3.90
2022-12-24T13:28:39.828Z,3.83
2022-12-24T13:31:28.957Z,4.10
2022-12-24T13:34:30.050Z,4.45
2022-12-24T13:37:22.168Z,3.85
2022-12-24T13:40:24.801Z,3.97
2022-12-24T13:43:12.573Z,4.47
2022-12-24T13:45:54.623Z,4.22
2022-12-24T13:48:37.902Z,5.53
2022-12-24T13:51:28.305Z,4.30
2022-12-24T13:54:02.956Z,4.78
2022-12-24T13:56:39.633Z,5.05
2022-12-24T13:59:34.538Z,5.07
2022-12-24T14:02:21.022Z,4.30
2022-12-24T14:04:54.852Z,4.07
2022-12-24T14:07:25.228Z,3.85
2022-12-24T14:09:56.007Z,4.35
2022-12-24T14:12:51.847Z,4.65
2022-12-24T14:16:05.662Z,4.47
2022-12-24T14:18:41.960Z,5.03
2022-12-24T14:21:23.950Z,5.28
2022-12-24T14:24:00.423Z,4.97
2022-12-24T14:26:36.198Z,5.18
2022-12-24T14:29:24.867Z,5.43
2022-12-24T14:31:58.636Z,4.85
2022-12-24T14:34:29.635Z,4.38
2022-12-24T14:37:02.364Z,4.82
2022-12-24T14:39:38.830Z,5.15
2022-12-24T14:42:32.015Z,4.60
2022-12-24T14:45:22.312Z,4.68
2022-12-24T14:48:05.316Z,4.93
2022-12-24T14:50:54.083Z,7.25
2022-12-24T14:53:58.444Z,7.97
2022-12-24T14:56:28.527Z,8.35
2022-12-24T14:59:05.052Z,7.78
2022-12-24T15:01:37.886Z,7.95
2022-12-24T15:04:19.430Z,8.00
2022-12-24T15:06:57.600Z,7.07
2022-12-24T15:09:31.950Z,6.35
2022-12-24T15:12:06.175Z,7.95
2022-12-24T15:14:48.462Z,8.20
2022-12-24T15:17:21.306Z,5.03
2022-12-24T15:19:56.682Z,4.63
2022-12-24T15:22:34.624Z,4.32
2022-12-24T15:25:04.774Z,5.82
2022-12-24T15:27:41.825Z,6.18
2022-12-24T15:30:19.369Z,5.15
2022-12-24T15:32:54.166Z,5.07
2022-12-24T15:36:06.946Z,5.20
2022-12-24T15:38:40.823Z,5.60
2022-12-24T15:41:22.385Z,6.72
2022-12-24T15:43:56.001Z,7.57
2022-12-24T15:46:30.093Z,6.50
2022-12-24T15:49:05.688Z,6.85
2022-12-24T15:51:40.799Z,5.97
2022-12-24T15:54:22.400Z,6.68
2022-12-24T15:56:52.599Z,8.05
2022-12-24T15:59:36.542Z,9.95
2022-12-24T16:02:35.718Z,10.40
2022-12-24T16:05:42.176Z,9.88
2022-12-24T16:08:31.579Z,8.38
2022-12-24T16:11:19.638Z,8.40
2022-12-24T16:14:21.169Z,9.63
2022-12-24T16:16:54.709Z,6.95
2022-12-24T16:19:28.149Z,6.30
2022-12-24T16:22:24.742Z,5.30
2022-12-24T16:24:56.141Z,6.05
2022-12-24T16:29:54.406Z,4.32
2022-12-24T16:32:38.016Z,5.47
2022-12-24T16:35:23.070Z,4.30
2022-12-24T16:37:56.107Z,4.18
2022-12-24T16:40:28.027Z,4.53
2022-12-24T16:43:23.810Z,5.70
2022-12-24T16:45:54.198Z,5.15
2022-12-24T16:48:30.105Z,6.15
2022-12-24T16:51:00.830Z,5.45
2022-12-24T16:53:33.673Z,4.80
2022-12-24T16:56:03.953Z,5.18
2022-12-24T16:58:34.058Z,5.75
2022-12-24T17:01:11.587Z,5.10
2022-12-24T17:03:41.967Z,4.70
2022-12-24T17:06:12.473Z,6.65
2022-12-24T17:08:45.147Z,6.78
2022-12-24T17:11:15.268Z,7.18
2022-12-24T17:13:45.425Z,9.10
2022-12-24T17:16:16.332Z,10.48
2022-12-24T17:18:48.135Z,10.02
2022-12-24T17:21:18.173Z,9.57
2022-12-24T17:23:50.890Z,10.80
2022-12-24T17:26:23.563Z,10.60
2022-12-24T17:28:57.194Z,15.10
2022-12-24T17:31:28.391Z,13.65
2022-12-24T17:33:58.687Z,9.37
2022-12-24T17:36:29.451Z,9.85
2022-12-24T17:39:08.274Z,10.63
2022-12-24T17:41:38.642Z,9.73
2022-12-24T17:44:09.109Z,8.53
2022-12-24T17:46:39.584Z,7.65
2022-12-24T17:49:10.161Z,8.27
2022-12-24T17:51:45.268Z,10.27
2022-12-24T17:54:18.855Z,11.67
2022-12-24T17:56:49.174Z,10.47
2022-12-24T17:59:22.125Z,9.53
2022-12-24T18:01:52.610Z,8.17
2022-12-24T18:04:23.279Z,8.02
2022-12-24T18:07:01.782Z,8.48
2022-12-24T18:09:35.402Z,7.33
2022-12-24T18:12:07.728Z,6.25
2022-12-24T18:14:37.927Z,6.90
2022-12-24T18:17:08.209Z,7.03
2022-12-24T18:19:41.466Z,6.40
2022-12-24T18:22:13.715Z,5.95
2022-12-24T18:24:49.023Z,5.45
2022-12-24T18:27:19.192Z,5.72
2022-12-24T18:29:49.252Z,8.00
2022-12-24T18:32:19.509Z,11.73
2022-12-24T18:34:49.581Z,8.30
2022-12-24T18:37:19.678Z,7.67
2022-12-24T18:39:52.456Z,6.88
2022-12-24T18:42:22.815Z,6.75
2022-12-24T18:44:53.255Z,7.32
2022-12-24T18:47:23.370Z,7.82
2022-12-24T18:49:53.487Z,6.10
2022-12-24T18:52:27.717Z,6.55
2022-12-24T18:55:00.557Z,6.03
2022-12-24T18:57:30.806Z,6.30
2022-12-24T19:00:00.873Z,6.32
2022-12-24T19:02:31.046Z,6.57
2022-12-24T19:05:01.210Z,6.60
2022-12-24T19:07:31.359Z,6.13
2022-12-24T19:10:06.876Z,5.55
2022-12-24T19:12:37.189Z,6.13
2022-12-24T19:15:09.807Z,5.80
2022-12-24T19:17:39.868Z,5.80
2022-12-24T19:20:13.292Z,5.78
2022-12-24T19:22:43.365Z,5.70
2022-12-24T19:25:16.170Z,5.22
2022-12-24T19:27:46.316Z,6.63
2022-12-24T19:30:19.558Z,6.68
2022-12-24T19:32:49.981Z,6.63
2022-12-24T19:35:20.211Z,6.00
2022-12-24T19:37:50.362Z,5.37
2022-12-24T19:40:23.069Z,5.90
2022-12-24T19:42:53.260Z,5.88
2022-12-24T19:45:24.757Z,5.63
2022-12-24T19:47:56.999Z,6.47
2022-12-24T19:50:27.094Z,10.63
2022-12-24T19:52:57.586Z,6.70
2022-12-24T19:55:30.366Z,6.85
2022-12-24T19:58:00.509Z,5.90
2022-12-24T20:00:30.789Z,6.97
2022-12-24T20:03:00.991Z,11.77
2022-12-24T20:05:33.518Z,18.77
2022-12-24T20:08:03.710Z,6.60
2022-12-24T20:10:41.614Z,5.80
2022-12-24T20:13:12.666Z,6.57
2022-12-24T20:15:43.876Z,5.25
2022-12-24T20:18:15.703Z,5.85
2022-12-24T20:20:45.812Z,6.53
2022-12-24T20:23:15.933Z,7.63
2022-12-24T20:25:48.662Z,8.32
2022-12-24T20:28:18.835Z,9.27
2022-12-24T20:30:48.988Z,9.50
2022-12-24T20:33:19.144Z,6.20
2022-12-24T20:35:50.231Z,4.85
2022-12-24T20:38:20.515Z,4.95
2022-12-24T20:40:53.213Z,4.97
2022-12-24T20:43:24.591Z,5.20
2022-12-24T20:45:58.458Z,5.18
2022-12-24T20:48:28.800Z,4.53
2022-12-24T20:50:58.982Z,4.35
2022-12-24T20:53:31.971Z,5.57
2022-12-24T20:56:09.034Z,4.07
2022-12-24T20:58:39.262Z,4.45
2022-12-24T21:01:19.561Z,4.50
2022-12-24T21:03:50.561Z,4.22
2022-12-24T21:06:20.981Z,4.75
2022-12-24T21:08:54.360Z,5.40
2022-12-24T21:11:39.941Z,5.00
2022-12-24T21:14:10.813Z,4.37
2022-12-24T21:16:42.675Z,4.50
2022-12-24T21:19:17.663Z,5.50
2022-12-24T21:21:48.874Z,4.43
2022-12-24T21:24:21.965Z,5.03
2022-12-24T21:26:54.661Z,4.15
2022-12-24T21:29:24.784Z,5.03
2022-12-24T21:31:54.913Z,4.53
2022-12-24T21:34:25.059Z,4.80
2022-12-24T21:36:56.568Z,4.22
2022-12-24T21:39:26.746Z,4.18
2022-12-24T21:41:59.818Z,5.13
2022-12-24T21:44:29.985Z,4.82
2022-12-24T21:47:00.109Z,4.95
2022-12-24T21:49:42.720Z,5.90
2022-12-24T21:52:15.192Z,5.93
2022-12-24T21:54:42.789Z,5.88
2022-12-24T21:57:27.914Z,4.60
2022-12-24T22:00:21.663Z,4.55
2022-12-24T22:02:53.402Z,4.93
2022-12-24T22:05:24.635Z,5.00
2022-12-24T22:08:07.940Z,4.90
2022-12-24T22:10:50.667Z,4.55
2022-12-24T22:13:23.646Z,4.25
2022-12-24T22:15:56.906Z,4.25
2022-12-24T22:18:31.374Z,4.93
2022-12-24T22:21:07.831Z,5.10
2022-12-24T22:23:42.327Z,6.03
2022-12-24T22:26:17.206Z,5.97
2022-12-24T22:28:49.922Z,6.75
2022-12-24T22:31:21.117Z,5.32
2022-12-24T22:33:51.427Z,5.70
2022-12-24T22:36:21.626Z,5.97
2022-12-24T22:38:51.745Z,4.93
2022-12-24T22:41:22.067Z,4.43
2022-12-24T22:43:54.989Z,3.85
2022-12-24T22:46:25.321Z,3.50
2022-12-24T22:48:55.521Z,3.50
2022-12-24T22:51:26.235Z,3.30
2022-12-24T22:53:56.948Z,3.53
2022-12-24T22:56:27.152Z,3.70
2022-12-24T22:59:00.707Z,3.45
2022-12-24T23:01:39.432Z,3.60
2022-12-24T23:04:10.582Z,3.03
2022-12-24T23:06:41.538Z,3.15
2022-12-24T23:09:15.910Z,3.17
2022-12-24T23:11:48.326Z,2.63
2022-12-24T23:14:36.732Z,2.53
2022-12-24T23:17:07.357Z,3.23
2022-12-24T23:19:37.923Z,3.17
2022-12-24T23:22:09.118Z,3.00
2022-12-24T23:24:41.574Z,3.28
2022-12-24T23:27:11.827Z,2.67
2022-12-24T23:29:45.600Z,3.00
2022-12-24T23:32:17.062Z,2.30
2022-12-24T23:34:47.475Z,2.53
2022-12-24T23:37:17.594Z,2.55
2022-12-24T23:39:48.412Z,3.10
2022-12-24T23:42:18.561Z,2.60
2022-12-24T23:44:51.575Z,2.95
2022-12-24T23:47:22.126Z,2.25
2022-12-24T23:49:52.347Z,2.57
2022-12-24T23:52:24.741Z,2.50
2022-12-24T23:54:54.902Z,2.58
2022-12-24T23:57:24.954Z,2.80
2022-12-24T23:59:57.707Z,2.23
